Skip Navigation Links
NOAA logo - Click to go to the NOAA homepage
NOAA's National Weather Service
Alaska Aviation Weather Unit
  NWS logo - Click to go to the NWS homepage
Left Navbar Graphic     02 AKDT = 10 GMT

   
NOAA is celebrating 200 years of science, service, and stewardship. Visit the NOAA 200th celebration Web site to learn more.
USA.gov is the U.S. Government's official Web portal to all Federal, state and local government Web resources and services.
Facebook
NWS on Facebook

AAWU Home :: Display TAF Add Bookmark
METAR PAIK 270401Z AUTO 00000KT 10SM CLR M14/M22 A3001 RMK AO2 SLP209
     T11391222 FZRANO=

PAIK 270501Z AUTO 00000KT 10SM CLR M17/M24 A3000 RMK AO2 SLP208
     T11671239 FZRANO=

METAR PAIK 270601Z AUTO 00000KT 10SM CLR M18/M23 A3000 RMK AO2 SLP206
     T11831233 11083 21183 56006 FZRANO=

METAR PAIK 270701Z AUTO 00000KT 7SM CLR M22/M27 A3000 RMK AO2 SLP205
     T12171267 FZRANO=

PAIK 270801Z AUTO 00000KT 8SM CLR M23/M27 A3000 RMK AO2 SLP205
     T12281267 FZRANO=

METAR PAIK 270901Z AUTO 00000KT 10SM CLR M24/M27 A3000 RMK AO2 SLP207
     T12391272 412391239 56002 FZRANO=

METAR PAIK 271001Z AUTO 00000KT 10SM CLR M24/M27 A2999 RMK AO2 SLP202
     T12391267 FZRANO=


NOAA's National Weather Service
Alaska Aviation Weather Unit
6930 Sand Lake Road
Anchorage, AK 99502-1845
Disclaimer
Credits
Glossary
Privacy Policy
About Us
Career Opportunities
Contact AAWU Internet Services Site last modified: April, 17th 2012